sensor_id;sensor_type;location;lat;lon;timestamp;P1;durP1;ratioP1;P2;durP2;ratioP2
11496;SDS011;5805;51.542;7.230;2023-05-13T00:01:03;6.85;;;4.88;;
11496;SDS011;5805;51.542;7.230;2023-05-13T00:03:28;6.68;;;4.93;;
11496;SDS011;5805;51.542;7.230;2023-05-13T00:05:54;6.45;;;5.03;;
11496;SDS011;5805;51.542;7.230;2023-05-13T00:08:21;6.25;;;5.70;;
11496;SDS011;5805;51.542;7.230;2023-05-13T00:10:47;6.82;;;5.15;;
11496;SDS011;5805;51.542;7.230;2023-05-13T00:13:13;9.23;;;4.90;;
11496;SDS011;5805;51.542;7.230;2023-05-13T00:15:38;5.72;;;4.95;;
11496;SDS011;5805;51.542;7.230;2023-05-13T00:18:04;5.28;;;4.80;;
11496;SDS011;5805;51.542;7.230;2023-05-13T00:20:30;8.48;;;5.30;;
11496;SDS011;5805;51.542;7.230;2023-05-13T00:22:55;6.15;;;4.65;;
11496;SDS011;5805;51.542;7.230;2023-05-13T00:25:23;6.85;;;5.40;;
11496;SDS011;5805;51.542;7.230;2023-05-13T00:27:48;7.82;;;4.93;;
11496;SDS011;5805;51.542;7.230;2023-05-13T00:30:14;7.43;;;5.38;;
11496;SDS011;5805;51.542;7.230;2023-05-13T00:32:40;8.60;;;5.72;;
11496;SDS011;5805;51.542;7.230;2023-05-13T00:35:06;7.63;;;5.50;;
11496;SDS011;5805;51.542;7.230;2023-05-13T00:37:32;6.97;;;5.38;;
11496;SDS011;5805;51.542;7.230;2023-05-13T00:39:57;7.80;;;5.85;;
11496;SDS011;5805;51.542;7.230;2023-05-13T00:42:24;7.65;;;5.53;;
11496;SDS011;5805;51.542;7.230;2023-05-13T00:44:50;6.43;;;5.47;;
11496;SDS011;5805;51.542;7.230;2023-05-13T00:47:16;9.57;;;5.90;;
11496;SDS011;5805;51.542;7.230;2023-05-13T00:49:42;8.40;;;5.50;;
11496;SDS011;5805;51.542;7.230;2023-05-13T00:52:08;6.32;;;5.72;;
11496;SDS011;5805;51.542;7.230;2023-05-13T00:54:33;9.68;;;5.70;;
11496;SDS011;5805;51.542;7.230;2023-05-13T00:56:59;6.43;;;5.80;;
11496;SDS011;5805;51.542;7.230;2023-05-13T00:59:27;5.72;;;5.22;;
11496;SDS011;5805;51.542;7.230;2023-05-13T01:01:55;6.57;;;5.93;;
11496;SDS011;5805;51.542;7.230;2023-05-13T01:04:26;8.05;;;6.32;;
11496;SDS011;5805;51.542;7.230;2023-05-13T01:06:59;8.02;;;5.57;;
11496;SDS011;5805;51.542;7.230;2023-05-13T01:09:35;7.13;;;6.15;;
11496;SDS011;5805;51.542;7.230;2023-05-13T01:12:09;7.03;;;5.82;;
11496;SDS011;5805;51.542;7.230;2023-05-13T01:17:30;7.85;;;6.35;;
11496;SDS011;5805;51.542;7.230;2023-05-13T01:19:57;8.27;;;6.07;;
11496;SDS011;5805;51.542;7.230;2023-05-13T01:22:28;6.53;;;5.93;;
11496;SDS011;5805;51.542;7.230;2023-05-13T01:24:53;6.95;;;6.25;;
11496;SDS011;5805;51.542;7.230;2023-05-13T01:27:19;7.80;;;5.95;;
11496;SDS011;5805;51.542;7.230;2023-05-13T01:29:45;8.30;;;6.10;;
11496;SDS011;5805;51.542;7.230;2023-05-13T01:32:11;7.28;;;6.55;;
11496;SDS011;5805;51.542;7.230;2023-05-13T01:34:37;7.25;;;6.55;;
11496;SDS011;5805;51.542;7.230;2023-05-13T01:37:04;8.02;;;6.20;;
11496;SDS011;5805;51.542;7.230;2023-05-13T01:39:31;7.30;;;6.50;;
11496;SDS011;5805;51.542;7.230;2023-05-13T01:42:00;7.53;;;6.70;;
11496;SDS011;5805;51.542;7.230;2023-05-13T01:44:27;7.80;;;6.60;;
11496;SDS011;5805;51.542;7.230;2023-05-13T01:46:52;7.65;;;6.45;;
11496;SDS011;5805;51.542;7.230;2023-05-13T01:49:18;8.57;;;6.07;;
11496;SDS011;5805;51.542;7.230;2023-05-13T01:51:44;9.05;;;6.50;;
11496;SDS011;5805;51.542;7.230;2023-05-13T01:54:09;9.48;;;6.38;;
11496;SDS011;5805;51.542;7.230;2023-05-13T01:56:36;7.43;;;6.47;;
11496;SDS011;5805;51.542;7.230;2023-05-13T01:59:02;6.50;;;5.53;;
11496;SDS011;5805;51.542;7.230;2023-05-13T02:01:28;8.40;;;6.65;;
11496;SDS011;5805;51.542;7.230;2023-05-13T02:03:53;8.38;;;5.60;;
11496;SDS011;5805;51.542;7.230;2023-05-13T02:06:20;8.90;;;6.43;;
11496;SDS011;5805;51.542;7.230;2023-05-13T02:08:46;7.85;;;6.05;;
11496;SDS011;5805;51.542;7.230;2023-05-13T02:11:12;9.07;;;6.82;;
11496;SDS011;5805;51.542;7.230;2023-05-13T02:13:39;7.00;;;5.65;;
11496;SDS011;5805;51.542;7.230;2023-05-13T02:16:04;8.52;;;6.20;;
11496;SDS011;5805;51.542;7.230;2023-05-13T02:18:30;7.45;;;6.72;;
11496;SDS011;5805;51.542;7.230;2023-05-13T02:20:56;7.60;;;6.80;;
11496;SDS011;5805;51.542;7.230;2023-05-13T02:23:22;6.35;;;5.78;;
11496;SDS011;5805;51.542;7.230;2023-05-13T02:25:47;8.95;;;5.90;;
11496;SDS011;5805;51.542;7.230;2023-05-13T02:28:13;8.27;;;6.22;;
11496;SDS011;5805;51.542;7.230;2023-05-13T02:30:40;6.68;;;6.07;;
11496;SDS011;5805;51.542;7.230;2023-05-13T02:33:06;6.88;;;6.18;;
11496;SDS011;5805;51.542;7.230;2023-05-13T02:35:31;7.00;;;5.82;;
11496;SDS011;5805;51.542;7.230;2023-05-13T02:37:57;8.32;;;5.82;;
11496;SDS011;5805;51.542;7.230;2023-05-13T02:40:23;7.13;;;6.22;;
11496;SDS011;5805;51.542;7.230;2023-05-13T02:42:49;6.50;;;5.75;;
11496;SDS011;5805;51.542;7.230;2023-05-13T02:45:14;6.68;;;5.97;;
11496;SDS011;5805;51.542;7.230;2023-05-13T02:47:42;6.55;;;5.72;;
11496;SDS011;5805;51.542;7.230;2023-05-13T02:50:07;6.70;;;5.75;;
11496;SDS011;5805;51.542;7.230;2023-05-13T02:52:33;6.88;;;6.18;;
11496;SDS011;5805;51.542;7.230;2023-05-13T02:54:59;6.60;;;5.90;;
11496;SDS011;5805;51.542;7.230;2023-05-13T02:57:25;8.35;;;6.18;;
11496;SDS011;5805;51.542;7.230;2023-05-13T02:59:50;7.10;;;6.45;;
11496;SDS011;5805;51.542;7.230;2023-05-13T03:02:16;6.97;;;6.28;;
11496;SDS011;5805;51.542;7.230;2023-05-13T03:04:43;9.57;;;6.28;;
11496;SDS011;5805;51.542;7.230;2023-05-13T03:07:09;7.63;;;5.75;;
11496;SDS011;5805;51.542;7.230;2023-05-13T03:09:34;8.63;;;6.70;;
11496;SDS011;5805;51.542;7.230;2023-05-13T03:12:00;7.03;;;6.13;;
11496;SDS011;5805;51.542;7.230;2023-05-13T03:14:26;9.55;;;6.75;;
11496;SDS011;5805;51.542;7.230;2023-05-13T03:16:52;9.23;;;6.53;;
11496;SDS011;5805;51.542;7.230;2023-05-13T03:19:17;8.73;;;6.18;;
11496;SDS011;5805;51.542;7.230;2023-05-13T03:21:44;7.28;;;6.57;;
11496;SDS011;5805;51.542;7.230;2023-05-13T03:24:10;12.30;;;6.35;;
11496;SDS011;5805;51.542;7.230;2023-05-13T03:26:36;7.47;;;6.22;;
11496;SDS011;5805;51.542;7.230;2023-05-13T03:29:01;8.00;;;6.18;;
11496;SDS011;5805;51.542;7.230;2023-05-13T03:31:27;9.32;;;6.40;;
11496;SDS011;5805;51.542;7.230;2023-05-13T03:33:53;9.95;;;6.05;;
11496;SDS011;5805;51.542;7.230;2023-05-13T03:36:18;11.07;;;6.70;;
11496;SDS011;5805;51.542;7.230;2023-05-13T03:38:45;7.65;;;6.55;;
11496;SDS011;5805;51.542;7.230;2023-05-13T03:41:11;11.15;;;6.35;;
11496;SDS011;5805;51.542;7.230;2023-05-13T03:43:37;7.85;;;6.22;;
11496;SDS011;5805;51.542;7.230;2023-05-13T03:46:02;7.32;;;6.53;;
11496;SDS011;5805;51.542;7.230;2023-05-13T03:48:28;9.05;;;6.35;;
11496;SDS011;5805;51.542;7.230;2023-05-13T03:50:54;9.13;;;6.68;;
11496;SDS011;5805;51.542;7.230;2023-05-13T03:53:22;6.88;;;6.28;;
11496;SDS011;5805;51.542;7.230;2023-05-13T03:55:50;8.00;;;6.40;;
11496;SDS011;5805;51.542;7.230;2023-05-13T03:58:18;7.15;;;6.40;;
11496;SDS011;5805;51.542;7.230;2023-05-13T04:00:47;8.80;;;6.13;;
11496;SDS011;5805;51.542;7.230;2023-05-13T04:03:13;7.78;;;6.05;;
11496;SDS011;5805;51.542;7.230;2023-05-13T04:05:40;7.03;;;6.15;;
11496;SDS011;5805;51.542;7.230;2023-05-13T04:08:11;6.82;;;6.18;;
11496;SDS011;5805;51.542;7.230;2023-05-13T04:10:37;6.88;;;6.28;;
11496;SDS011;5805;51.542;7.230;2023-05-13T04:13:04;8.90;;;6.57;;
11496;SDS011;5805;51.542;7.230;2023-05-13T04:15:30;7.30;;;6.53;;
11496;SDS011;5805;51.542;7.230;2023-05-13T04:17:55;7.60;;;6.30;;
11496;SDS011;5805;51.542;7.230;2023-05-13T04:20:21;8.38;;;6.60;;
11496;SDS011;5805;51.542;7.230;2023-05-13T04:22:47;7.50;;;6.50;;
11496;SDS011;5805;51.542;7.230;2023-05-13T04:25:13;8.23;;;6.90;;
11496;SDS011;5805;51.542;7.230;2023-05-13T04:27:38;6.90;;;6.20;;
11496;SDS011;5805;51.542;7.230;2023-05-13T04:30:07;6.20;;;5.65;;
11496;SDS011;5805;51.542;7.230;2023-05-13T04:32:33;8.23;;;6.45;;
11496;SDS011;5805;51.542;7.230;2023-05-13T04:34:59;8.32;;;6.63;;
11496;SDS011;5805;51.542;7.230;2023-05-13T04:37:25;7.38;;;6.68;;
11496;SDS011;5805;51.542;7.230;2023-05-13T04:39:50;8.20;;;6.93;;
11496;SDS011;5805;51.542;7.230;2023-05-13T04:42:16;11.05;;;6.88;;
11496;SDS011;5805;51.542;7.230;2023-05-13T04:44:42;8.63;;;6.47;;
11496;SDS011;5805;51.542;7.230;2023-05-13T04:47:09;7.45;;;5.97;;
11496;SDS011;5805;51.542;7.230;2023-05-13T04:49:35;8.18;;;6.82;;
11496;SDS011;5805;51.542;7.230;2023-05-13T04:52:01;8.27;;;7.43;;
11496;SDS011;5805;51.542;7.230;2023-05-13T04:54:28;7.07;;;6.35;;
11496;SDS011;5805;51.542;7.230;2023-05-13T04:56:54;6.70;;;6.03;;
11496;SDS011;5805;51.542;7.230;2023-05-13T04:59:20;8.07;;;6.47;;
11496;SDS011;5805;51.542;7.230;2023-05-13T05:01:46;6.80;;;6.00;;
11496;SDS011;5805;51.542;7.230;2023-05-13T05:04:13;8.52;;;6.75;;
11496;SDS011;5805;51.542;7.230;2023-05-13T05:06:39;7.63;;;6.93;;
11496;SDS011;5805;51.542;7.230;2023-05-13T05:09:04;8.52;;;6.32;;
11496;SDS011;5805;51.542;7.230;2023-05-13T05:11:30;7.47;;;6.78;;
11496;SDS011;5805;51.542;7.230;2023-05-13T05:13:56;8.43;;;6.22;;
11496;SDS011;5805;51.542;7.230;2023-05-13T05:16:22;7.22;;;6.53;;
11496;SDS011;5805;51.542;7.230;2023-05-13T05:18:48;8.00;;;7.05;;
11496;SDS011;5805;51.542;7.230;2023-05-13T05:21:15;8.70;;;6.85;;
11496;SDS011;5805;51.542;7.230;2023-05-13T05:23:41;7.18;;;6.47;;
11496;SDS011;5805;51.542;7.230;2023-05-13T05:26:06;7.05;;;6.35;;
11496;SDS011;5805;51.542;7.230;2023-05-13T05:28:32;7.18;;;6.38;;
11496;SDS011;5805;51.542;7.230;2023-05-13T05:30:58;7.60;;;6.90;;
11496;SDS011;5805;51.542;7.230;2023-05-13T05:33:23;7.72;;;7.03;;
11496;SDS011;5805;51.542;7.230;2023-05-13T05:35:49;7.93;;;6.50;;
11496;SDS011;5805;51.542;7.230;2023-05-13T05:38:16;7.47;;;6.80;;
11496;SDS011;5805;51.542;7.230;2023-05-13T05:40:42;9.80;;;7.22;;
11496;SDS011;5805;51.542;7.230;2023-05-13T05:43:09;7.38;;;6.68;;
11496;SDS011;5805;51.542;7.230;2023-05-13T05:45:35;7.90;;;7.00;;
11496;SDS011;5805;51.542;7.230;2023-05-13T05:48:02;7.93;;;7.13;;
11496;SDS011;5805;51.542;7.230;2023-05-13T05:50:28;8.32;;;6.95;;
11496;SDS011;5805;51.542;7.230;2023-05-13T05:52:54;8.05;;;6.47;;
11496;SDS011;5805;51.542;7.230;2023-05-13T05:55:21;7.63;;;6.93;;
11496;SDS011;5805;51.542;7.230;2023-05-13T05:57:47;7.15;;;6.45;;
11496;SDS011;5805;51.542;7.230;2023-05-13T06:00:13;7.57;;;6.85;;
11496;SDS011;5805;51.542;7.230;2023-05-13T06:02:39;7.05;;;6.35;;
11496;SDS011;5805;51.542;7.230;2023-05-13T06:05:05;8.70;;;6.28;;
11496;SDS011;5805;51.542;7.230;2023-05-13T06:07:32;8.57;;;6.45;;
11496;SDS011;5805;51.542;7.230;2023-05-13T06:09:57;14.32;;;7.00;;
11496;SDS011;5805;51.542;7.230;2023-05-13T06:12:24;7.25;;;6.57;;
11496;SDS011;5805;51.542;7.230;2023-05-13T06:14:50;7.60;;;6.82;;
11496;SDS011;5805;51.542;7.230;2023-05-13T06:17:16;8.60;;;7.00;;
11496;SDS011;5805;51.542;7.230;2023-05-13T06:19:41;7.97;;;6.90;;
11496;SDS011;5805;51.542;7.230;2023-05-13T06:22:07;13.18;;;6.90;;
11496;SDS011;5805;51.542;7.230;2023-05-13T06:24:33;7.13;;;6.43;;
11496;SDS011;5805;51.542;7.230;2023-05-13T06:26:59;7.57;;;6.88;;
11496;SDS011;5805;51.542;7.230;2023-05-13T06:29:26;9.05;;;6.50;;
11496;SDS011;5805;51.542;7.230;2023-05-13T06:31:52;10.13;;;6.88;;
11496;SDS011;5805;51.542;7.230;2023-05-13T06:34:17;8.38;;;6.75;;
11496;SDS011;5805;51.542;7.230;2023-05-13T06:36:43;7.97;;;6.07;;
11496;SDS011;5805;51.542;7.230;2023-05-13T06:39:09;8.15;;;7.07;;
11496;SDS011;5805;51.542;7.230;2023-05-13T06:41:36;8.13;;;6.50;;
11496;SDS011;5805;51.542;7.230;2023-05-13T06:44:02;7.15;;;6.45;;
11496;SDS011;5805;51.542;7.230;2023-05-13T06:46:29;8.07;;;6.30;;
11496;SDS011;5805;51.542;7.230;2023-05-13T06:48:55;7.80;;;6.75;;
11496;SDS011;5805;51.542;7.230;2023-05-13T06:51:21;8.07;;;6.38;;
11496;SDS011;5805;51.542;7.230;2023-05-13T06:53:46;7.50;;;5.90;;
11496;SDS011;5805;51.542;7.230;2023-05-13T06:56:12;7.78;;;6.15;;
11496;SDS011;5805;51.542;7.230;2023-05-13T06:58:38;6.70;;;6.10;;
11496;SDS011;5805;51.542;7.230;2023-05-13T07:01:04;7.45;;;6.25;;
11496;SDS011;5805;51.542;7.230;2023-05-13T07:03:31;7.55;;;5.70;;
11496;SDS011;5805;51.542;7.230;2023-05-13T07:05:57;8.00;;;6.35;;
11496;SDS011;5805;51.542;7.230;2023-05-13T07:08:23;6.70;;;6.00;;
11496;SDS011;5805;51.542;7.230;2023-05-13T07:10:49;8.02;;;6.22;;
11496;SDS011;5805;51.542;7.230;2023-05-13T07:13:14;8.43;;;6.82;;
11496;SDS011;5805;51.542;7.230;2023-05-13T07:15:41;8.18;;;6.18;;
11496;SDS011;5805;51.542;7.230;2023-05-13T07:18:07;9.10;;;6.43;;
11496;SDS011;5805;51.542;7.230;2023-05-13T07:20:34;12.85;;;5.68;;
11496;SDS011;5805;51.542;7.230;2023-05-13T07:23:00;6.20;;;5.10;;
11496;SDS011;5805;51.542;7.230;2023-05-13T07:25:25;6.00;;;5.40;;
11496;SDS011;5805;51.542;7.230;2023-05-13T07:27:51;6.47;;;5.88;;
11496;SDS011;5805;51.542;7.230;2023-05-13T07:30:17;8.25;;;5.72;;
11496;SDS011;5805;51.542;7.230;2023-05-13T07:32:43;6.82;;;6.20;;
11496;SDS011;5805;51.542;7.230;2023-05-13T07:35:08;7.82;;;6.28;;
11496;SDS011;5805;51.542;7.230;2023-05-13T07:37:36;6.90;;;6.05;;
11496;SDS011;5805;51.542;7.230;2023-05-13T07:40:01;7.22;;;6.53;;
11496;SDS011;5805;51.542;7.230;2023-05-13T07:42:28;11.02;;;6.35;;
11496;SDS011;5805;51.542;7.230;2023-05-13T07:44:54;6.45;;;5.88;;
11496;SDS011;5805;51.542;7.230;2023-05-13T07:47:19;7.78;;;5.97;;
11496;SDS011;5805;51.542;7.230;2023-05-13T07:49:45;14.75;;;6.90;;
11496;SDS011;5805;51.542;7.230;2023-05-13T07:52:11;7.77;;;6.97;;
11496;SDS011;5805;51.542;7.230;2023-05-13T07:54:38;7.50;;;6.60;;
11496;SDS011;5805;51.542;7.230;2023-05-13T07:57:04;7.60;;;6.28;;
11496;SDS011;5805;51.542;7.230;2023-05-13T07:59:30;7.05;;;6.35;;
11496;SDS011;5805;51.542;7.230;2023-05-13T08:01:55;6.80;;;6.10;;
11496;SDS011;5805;51.542;7.230;2023-05-13T08:04:21;9.88;;;6.15;;
11496;SDS011;5805;51.542;7.230;2023-05-13T08:06:47;6.90;;;5.80;;
11496;SDS011;5805;51.542;7.230;2023-05-13T08:09:12;6.15;;;5.55;;
11496;SDS011;5805;51.542;7.230;2023-05-13T08:11:40;8.35;;;5.78;;
11496;SDS011;5805;51.542;7.230;2023-05-13T08:14:05;5.78;;;5.25;;
11496;SDS011;5805;51.542;7.230;2023-05-13T08:16:33;11.65;;;5.57;;
11496;SDS011;5805;51.542;7.230;2023-05-13T08:18:58;5.68;;;5.00;;
11496;SDS011;5805;51.542;7.230;2023-05-13T08:21:24;5.28;;;4.70;;
11496;SDS011;5805;51.542;7.230;2023-05-13T08:23:50;7.97;;;5.13;;
11496;SDS011;5805;51.542;7.230;2023-05-13T08:26:16;4.65;;;4.22;;
11496;SDS011;5805;51.542;7.230;2023-05-13T08:28:43;4.85;;;4.43;;
11496;SDS011;5805;51.542;7.230;2023-05-13T08:31:09;6.25;;;4.25;;
11496;SDS011;5805;51.542;7.230;2023-05-13T08:33:35;4.97;;;4.47;;
11496;SDS011;5805;51.542;7.230;2023-05-13T08:36:01;6.82;;;4.10;;
11496;SDS011;5805;51.542;7.230;2023-05-13T08:38:27;9.93;;;5.30;;
11496;SDS011;5805;51.542;7.230;2023-05-13T08:40:53;6.07;;;4.38;;
11496;SDS011;5805;51.542;7.230;2023-05-13T08:43:18;6.65;;;4.22;;
11496;SDS011;5805;51.542;7.230;2023-05-13T08:45:49;6.53;;;3.70;;
11496;SDS011;5805;51.542;7.230;2023-05-13T08:48:16;4.70;;;4.00;;
11496;SDS011;5805;51.542;7.230;2023-05-13T08:50:43;4.10;;;3.65;;
11496;SDS011;5805;51.542;7.230;2023-05-13T08:53:10;4.55;;;3.22;;
11496;SDS011;5805;51.542;7.230;2023-05-13T08:55:37;5.85;;;3.78;;
11496;SDS011;5805;51.542;7.230;2023-05-13T08:58:02;4.63;;;3.20;;
11496;SDS011;5805;51.542;7.230;2023-05-13T09:00:28;4.22;;;3.30;;
11496;SDS011;5805;51.542;7.230;2023-05-13T09:02:55;6.70;;;3.67;;
11496;SDS011;5805;51.542;7.230;2023-05-13T09:05:21;4.07;;;3.35;;
11496;SDS011;5805;51.542;7.230;2023-05-13T09:07:47;5.45;;;3.35;;
11496;SDS011;5805;51.542;7.230;2023-05-13T09:10:13;5.28;;;3.53;;
11496;SDS011;5805;51.542;7.230;2023-05-13T09:12:42;3.70;;;3.30;;
11496;SDS011;5805;51.542;7.230;2023-05-13T09:15:12;4.95;;;3.20;;
11496;SDS011;5805;51.542;7.230;2023-05-13T09:17:38;6.00;;;3.75;;
11496;SDS011;5805;51.542;7.230;2023-05-13T09:20:07;4.38;;;3.55;;
11496;SDS011;5805;51.542;7.230;2023-05-13T09:22:34;7.57;;;3.10;;
11496;SDS011;5805;51.542;7.230;2023-05-13T09:25:00;3.55;;;2.60;;
11496;SDS011;5805;51.542;7.230;2023-05-13T09:27:27;3.88;;;3.25;;
11496;SDS011;5805;51.542;7.230;2023-05-13T09:30:00;5.68;;;3.30;;
11496;SDS011;5805;51.542;7.230;2023-05-13T09:32:26;5.10;;;3.40;;
11496;SDS011;5805;51.542;7.230;2023-05-13T09:34:52;3.47;;;3.08;;
11496;SDS011;5805;51.542;7.230;2023-05-13T09:37:21;6.32;;;3.00;;
11496;SDS011;5805;51.542;7.230;2023-05-13T09:39:49;6.60;;;3.00;;
11496;SDS011;5805;51.542;7.230;2023-05-13T09:42:16;5.53;;;3.42;;
11496;SDS011;5805;51.542;7.230;2023-05-13T09:44:43;5.40;;;3.10;;
11496;SDS011;5805;51.542;7.230;2023-05-13T09:47:10;4.07;;;2.78;;
11496;SDS011;5805;51.542;7.230;2023-05-13T09:49:36;6.63;;;3.03;;
11496;SDS011;5805;51.542;7.230;2023-05-13T09:52:02;6.97;;;2.95;;
11496;SDS011;5805;51.542;7.230;2023-05-13T09:54:34;5.78;;;3.28;;
11496;SDS011;5805;51.542;7.230;2023-05-13T09:56:59;8.40;;;2.95;;
11496;SDS011;5805;51.542;7.230;2023-05-13T09:59:25;3.58;;;3.10;;
11496;SDS011;5805;51.542;7.230;2023-05-13T10:01:51;3.65;;;3.05;;
11496;SDS011;5805;51.542;7.230;2023-05-13T10:04:18;3.80;;;3.08;;
11496;SDS011;5805;51.542;7.230;2023-05-13T10:06:44;4.40;;;2.67;;
11496;SDS011;5805;51.542;7.230;2023-05-13T10:09:12;7.05;;;3.00;;
11496;SDS011;5805;51.542;7.230;2023-05-13T10:11:41;3.42;;;2.80;;
11496;SDS011;5805;51.542;7.230;2023-05-13T10:14:10;5.57;;;2.78;;
11496;SDS011;5805;51.542;7.230;2023-05-13T10:16:36;2.88;;;2.63;;
11496;SDS011;5805;51.542;7.230;2023-05-13T10:19:02;4.50;;;3.40;;
11496;SDS011;5805;51.542;7.230;2023-05-13T10:21:28;9.20;;;4.85;;
11496;SDS011;5805;51.542;7.230;2023-05-13T10:23:54;11.55;;;5.68;;
11496;SDS011;5805;51.542;7.230;2023-05-13T10:26:21;13.75;;;5.93;;
11496;SDS011;5805;51.542;7.230;2023-05-13T10:28:49;4.97;;;4.32;;
11496;SDS011;5805;51.542;7.230;2023-05-13T10:31:15;4.22;;;3.83;;
11496;SDS011;5805;51.542;7.230;2023-05-13T10:33:41;9.75;;;4.55;;
11496;SDS011;5805;51.542;7.230;2023-05-13T10:36:12;4.88;;;3.20;;
11496;SDS011;5805;51.542;7.230;2023-05-13T10:44:57;3.85;;;3.05;;
11496;SDS011;5805;51.542;7.230;2023-05-13T10:47:23;5.65;;;2.85;;
11496;SDS011;5805;51.542;7.230;2023-05-13T10:49:49;3.33;;;3.00;;
11496;SDS011;5805;51.542;7.230;2023-05-13T10:52:15;3.97;;;3.03;;
11496;SDS011;5805;51.542;7.230;2023-05-13T10:54:41;3.15;;;2.88;;
11496;SDS011;5805;51.542;7.230;2023-05-13T10:57:07;4.40;;;2.70;;
11496;SDS011;5805;51.542;7.230;2023-05-13T10:59:33;5.20;;;3.00;;
11496;SDS011;5805;51.542;7.230;2023-05-13T11:02:01;5.20;;;3.08;;
11496;SDS011;5805;51.542;7.230;2023-05-13T11:04:27;5.53;;;3.40;;
11496;SDS011;5805;51.542;7.230;2023-05-13T11:06:53;4.88;;;3.00;;
11496;SDS011;5805;51.542;7.230;2023-05-13T11:09:28;3.05;;;2.47;;
11496;SDS011;5805;51.542;7.230;2023-05-13T11:11:54;6.78;;;2.72;;
11496;SDS011;5805;51.542;7.230;2023-05-13T11:14:21;3.42;;;3.10;;
11496;SDS011;5805;51.542;7.230;2023-05-13T11:16:51;4.15;;;2.40;;
11496;SDS011;5805;51.542;7.230;2023-05-13T11:19:19;6.15;;;2.45;;
11496;SDS011;5805;51.542;7.230;2023-05-13T11:21:46;6.47;;;2.72;;
11496;SDS011;5805;51.542;7.230;2023-05-13T11:24:16;4.60;;;2.78;;
11496;SDS011;5805;51.542;7.230;2023-05-13T11:26:43;7.32;;;2.80;;
11496;SDS011;5805;51.542;7.230;2023-05-13T11:29:09;4.15;;;2.83;;
11496;SDS011;5805;51.542;7.230;2023-05-13T11:31:42;4.43;;;3.13;;
11496;SDS011;5805;51.542;7.230;2023-05-13T11:34:11;4.78;;;2.53;;
11496;SDS011;5805;51.542;7.230;2023-05-13T11:36:39;5.82;;;2.88;;
11496;SDS011;5805;51.542;7.230;2023-05-13T11:39:07;4.75;;;2.22;;
11496;SDS011;5805;51.542;7.230;2023-05-13T11:41:38;3.72;;;2.55;;
11496;SDS011;5805;51.542;7.230;2023-05-13T11:44:05;4.03;;;2.70;;
11496;SDS011;5805;51.542;7.230;2023-05-13T11:46:31;3.95;;;2.60;;
11496;SDS011;5805;51.542;7.230;2023-05-13T11:48:57;3.72;;;2.80;;
11496;SDS011;5805;51.542;7.230;2023-05-13T11:51:23;4.50;;;2.60;;
11496;SDS011;5805;51.542;7.230;2023-05-13T11:53:50;3.13;;;2.50;;
11496;SDS011;5805;51.542;7.230;2023-05-13T11:56:16;5.53;;;2.80;;
11496;SDS011;5805;51.542;7.230;2023-05-13T11:58:41;6.35;;;2.58;;
11496;SDS011;5805;51.542;7.230;2023-05-13T12:01:11;4.18;;;2.22;;
11496;SDS011;5805;51.542;7.230;2023-05-13T12:03:38;6.90;;;2.70;;
11496;SDS011;5805;51.542;7.230;2023-05-13T12:06:04;3.97;;;2.67;;
11496;SDS011;5805;51.542;7.230;2023-05-13T12:08:30;8.00;;;2.45;;
11496;SDS011;5805;51.542;7.230;2023-05-13T12:10:57;5.05;;;2.33;;
11496;SDS011;5805;51.542;7.230;2023-05-13T12:13:23;2.83;;;2.50;;
11496;SDS011;5805;51.542;7.230;2023-05-13T12:15:50;3.70;;;2.60;;
11496;SDS011;5805;51.542;7.230;2023-05-13T12:18:15;4.78;;;2.20;;
11496;SDS011;5805;51.542;7.230;2023-05-13T12:20:41;3.72;;;2.47;;
11496;SDS011;5805;51.542;7.230;2023-05-13T12:23:08;3.63;;;2.15;;
11496;SDS011;5805;51.542;7.230;2023-05-13T12:25:38;3.25;;;2.00;;
11496;SDS011;5805;51.542;7.230;2023-05-13T12:28:10;5.97;;;2.22;;
11496;SDS011;5805;51.542;7.230;2023-05-13T12:30:37;2.70;;;2.13;;
11496;SDS011;5805;51.542;7.230;2023-05-13T12:33:04;4.18;;;2.20;;
11496;SDS011;5805;51.542;7.230;2023-05-13T12:35:36;4.38;;;2.25;;
11496;SDS011;5805;51.542;7.230;2023-05-13T12:38:01;2.30;;;2.10;;
11496;SDS011;5805;51.542;7.230;2023-05-13T12:40:28;4.60;;;1.90;;
11496;SDS011;5805;51.542;7.230;2023-05-13T12:42:57;7.05;;;2.33;;
11496;SDS011;5805;51.542;7.230;2023-05-13T12:45:27;4.20;;;2.30;;
11496;SDS011;5805;51.542;7.230;2023-05-13T12:47:53;3.47;;;2.10;;
11496;SDS011;5805;51.542;7.230;2023-05-13T12:50:19;3.65;;;2.28;;
11496;SDS011;5805;51.542;7.230;2023-05-13T12:52:45;2.72;;;2.05;;
11496;SDS011;5805;51.542;7.230;2023-05-13T12:55:10;3.97;;;2.40;;
11496;SDS011;5805;51.542;7.230;2023-05-13T12:57:36;2.83;;;2.50;;
11496;SDS011;5805;51.542;7.230;2023-05-13T13:00:02;4.35;;;2.60;;
11496;SDS011;5805;51.542;7.230;2023-05-13T13:02:30;2.58;;;2.15;;
11496;SDS011;5805;51.542;7.230;2023-05-13T13:04:56;5.93;;;2.55;;
11496;SDS011;5805;51.542;7.230;2023-05-13T13:07:22;3.15;;;2.20;;
11496;SDS011;5805;51.542;7.230;2023-05-13T13:09:47;4.85;;;2.78;;
11496;SDS011;5805;51.542;7.230;2023-05-13T13:12:13;4.88;;;2.53;;
11496;SDS011;5805;51.542;7.230;2023-05-13T13:14:39;3.92;;;2.30;;
11496;SDS011;5805;51.542;7.230;2023-05-13T13:17:04;4.55;;;2.47;;
11496;SDS011;5805;51.542;7.230;2023-05-13T13:19:32;3.42;;;2.40;;
11496;SDS011;5805;51.542;7.230;2023-05-13T13:21:58;7.70;;;2.15;;
11496;SDS011;5805;51.542;7.230;2023-05-13T13:24:23;3.85;;;2.33;;
11496;SDS011;5805;51.542;7.230;2023-05-13T13:26:49;2.97;;;2.10;;
11496;SDS011;5805;51.542;7.230;2023-05-13T13:29:15;3.15;;;2.10;;
11496;SDS011;5805;51.542;7.230;2023-05-13T13:31:40;4.45;;;2.50;;
11496;SDS011;5805;51.542;7.230;2023-05-13T13:34:06;4.25;;;2.40;;
11496;SDS011;5805;51.542;7.230;2023-05-13T13:36:33;5.03;;;2.10;;
11496;SDS011;5805;51.542;7.230;2023-05-13T13:38:59;3.33;;;2.15;;
11496;SDS011;5805;51.542;7.230;2023-05-13T13:41:25;3.10;;;2.30;;
11496;SDS011;5805;51.542;7.230;2023-05-13T13:43:50;3.78;;;2.20;;
11496;SDS011;5805;51.542;7.230;2023-05-13T13:46:16;3.55;;;2.42;;
11496;SDS011;5805;51.542;7.230;2023-05-13T13:48:42;2.60;;;2.30;;
11496;SDS011;5805;51.542;7.230;2023-05-13T13:51:07;3.58;;;2.33;;
11496;SDS011;5805;51.542;7.230;2023-05-13T13:53:35;2.92;;;2.10;;
11496;SDS011;5805;51.542;7.230;2023-05-13T13:56:00;4.53;;;2.45;;
11496;SDS011;5805;51.542;7.230;2023-05-13T13:58:26;2.83;;;2.38;;
11496;SDS011;5805;51.542;7.230;2023-05-13T14:00:52;2.88;;;2.20;;
11496;SDS011;5805;51.542;7.230;2023-05-13T14:03:17;3.25;;;2.95;;
11496;SDS011;5805;51.542;7.230;2023-05-13T14:05:43;2.67;;;2.00;;
11496;SDS011;5805;51.542;7.230;2023-05-13T14:08:09;4.03;;;1.90;;
11496;SDS011;5805;51.542;7.230;2023-05-13T14:10:36;5.25;;;2.33;;
11496;SDS011;5805;51.542;7.230;2023-05-13T14:13:02;2.50;;;2.17;;
11496;SDS011;5805;51.542;7.230;2023-05-13T14:15:27;3.33;;;2.45;;
11496;SDS011;5805;51.542;7.230;2023-05-13T14:17:53;4.75;;;2.47;;
11496;SDS011;5805;51.542;7.230;2023-05-13T14:20:19;6.13;;;2.75;;
11496;SDS011;5805;51.542;7.230;2023-05-13T14:22:45;3.75;;;2.35;;
11496;SDS011;5805;51.542;7.230;2023-05-13T14:25:11;5.28;;;2.20;;
11496;SDS011;5805;51.542;7.230;2023-05-13T14:27:38;2.88;;;1.92;;
11496;SDS011;5805;51.542;7.230;2023-05-13T14:30:04;4.53;;;2.28;;
11496;SDS011;5805;51.542;7.230;2023-05-13T14:32:31;5.28;;;1.70;;
11496;SDS011;5805;51.542;7.230;2023-05-13T14:34:57;2.60;;;2.10;;
11496;SDS011;5805;51.542;7.230;2023-05-13T14:37:22;3.10;;;2.03;;
11496;SDS011;5805;51.542;7.230;2023-05-13T14:39:48;4.00;;;2.42;;
11496;SDS011;5805;51.542;7.230;2023-05-13T14:42:14;5.78;;;2.25;;
11496;SDS011;5805;51.542;7.230;2023-05-13T14:44:41;3.22;;;2.40;;
11496;SDS011;5805;51.542;7.230;2023-05-13T14:47:07;2.42;;;1.85;;
11496;SDS011;5805;51.542;7.230;2023-05-13T14:49:32;4.65;;;2.17;;
11496;SDS011;5805;51.542;7.230;2023-05-13T14:51:58;2.30;;;2.10;;
11496;SDS011;5805;51.542;7.230;2023-05-13T14:54:24;5.97;;;1.80;;
11496;SDS011;5805;51.542;7.230;2023-05-13T14:56:50;9.13;;;1.70;;
11496;SDS011;5805;51.542;7.230;2023-05-13T14:59:15;2.20;;;2.00;;
11496;SDS011;5805;51.542;7.230;2023-05-13T15:01:43;2.72;;;1.63;;
11496;SDS011;5805;51.542;7.230;2023-05-13T15:04:09;2.72;;;1.50;;